Time;durP1;ratioP1;P1;durP2;ratioP2;P2;SDS_P1;SDS_P2;PMS_P1;PMS_P2;Temp;Humidity;BMP_temperature;BMP_pressure;BME280_temperature;BME280_humidity;BME280_pressure;Samples;Min_cycle;Max_cycle;Signal;HPM_P1;HPM_P2
2023/10/31 00:00:38;;;;;;;1.73;0.10;;;11.10;78.60;;;;;;5032468;28;20363;-70
2023/10/31 00:03:03;;;;;;;0.20;0.15;;;11.10;78.50;;;;;;5031451;28;20054;-71
2023/10/31 00:05:29;;;;;;;0.30;0.30;;;11.10;78.20;;;;;;5032661;28;20021;-70
2023/10/31 00:07:54;;;;;;;0.55;0.10;;;11.10;78.60;;;;;;5032583;28;20072;-71
2023/10/31 00:10:20;;;;;;;0.50;0.30;;;11.10;78.50;;;;;;5032531;28;20152;-81
2023/10/31 00:12:46;;;;;;;0.80;0.25;;;11.10;78.40;;;;;;5032668;28;20083;-80
2023/10/31 00:15:11;;;;;;;0.63;0.20;;;11.20;78.00;;;;;;5032869;28;20040;-74
2023/10/31 00:17:37;;;;;;;0.40;0.20;;;11.10;77.50;;;;;;5032788;28;20123;-70
2023/10/31 00:20:03;;;;;;;0.30;0.30;;;11.10;78.00;;;;;;5032464;28;20026;-71
2023/10/31 00:22:28;;;;;;;0.40;0.20;;;11.10;78.20;;;;;;5031799;28;20428;-77
2023/10/31 00:24:54;;;;;;;0.57;0.30;;;11.10;78.20;;;;;;5032823;28;20026;-78
2023/10/31 00:27:19;;;;;;;0.30;0.20;;;11.10;78.30;;;;;;5031527;28;20382;-79
2023/10/31 00:29:45;;;;;;;1.00;0.22;;;11.00;78.00;;;;;;5033136;28;20044;-78
2023/10/31 00:32:10;;;;;;;0.20;0.20;;;11.00;78.40;;;;;;5033970;28;20072;-79
2023/10/31 00:34:36;;;;;;;0.40;0.40;;;11.00;77.60;;;;;;5035106;28;20378;-74
2023/10/31 00:37:01;;;;;;;0.30;0.30;;;11.00;77.70;;;;;;5034820;28;20025;-70
2023/10/31 00:39:27;;;;;;;0.50;0.45;;;11.00;77.40;;;;;;5032632;28;20021;-70
2023/10/31 00:41:52;;;;;;;0.45;0.10;;;11.00;77.70;;;;;;5034409;28;20028;-77
2023/10/31 00:44:19;;;;;;;0.98;0.40;;;11.00;77.60;;;;;;5037249;28;20057;-70
2023/10/31 00:46:44;;;;;;;0.77;0.30;;;11.00;77.10;;;;;;5031882;28;20025;-70
2023/10/31 00:49:10;;;;;;;0.60;0.30;;;11.00;77.10;;;;;;5032302;28;20079;-71
2023/10/31 00:51:35;;;;;;;1.58;0.40;;;10.90;77.70;;;;;;5032090;28;20450;-70
2023/10/31 00:54:01;;;;;;;1.15;0.30;;;10.90;77.30;;;;;;5035881;28;20522;-72
2023/10/31 00:56:26;;;;;;;1.20;0.40;;;10.90;77.50;;;;;;5035810;28;20087;-71
2023/10/31 00:58:52;;;;;;;0.40;0.40;;;10.90;77.70;;;;;;5035756;28;20025;-72
2023/10/31 01:01:17;;;;;;;1.85;0.55;;;10.90;77.60;;;;;;5035666;28;20101;-77
2023/10/31 01:03:43;;;;;;;0.98;0.40;;;10.80;77.90;;;;;;5035642;28;20029;-70
2023/10/31 01:06:09;;;;;;;0.90;0.40;;;10.80;78.30;;;;;;5034313;28;20053;-70
2023/10/31 01:08:34;;;;;;;0.88;0.50;;;10.80;78.10;;;;;;5035663;28;20033;-71
2023/10/31 01:11:00;;;;;;;0.32;0.30;;;10.80;77.90;;;;;;5040603;28;20072;-71
2023/10/31 01:13:26;;;;;;;0.50;0.32;;;10.80;77.80;;;;;;5035635;28;20033;-71
2023/10/31 01:15:51;;;;;;;1.50;0.40;;;10.80;77.50;;;;;;5035586;28;20033;-70
2023/10/31 01:18:17;;;;;;;0.93;0.43;;;10.80;77.40;;;;;;5035321;28;20056;-71
2023/10/31 01:20:43;;;;;;;1.13;0.57;;;10.70;77.20;;;;;;5034065;28;20051;-71
2023/10/31 01:23:08;;;;;;;0.55;0.30;;;10.80;77.50;;;;;;5034030;28;20108;-71
2023/10/31 01:25:34;;;;;;;0.70;0.50;;;10.80;77.00;;;;;;5035261;28;20104;-72
2023/10/31 01:27:59;;;;;;;0.93;0.50;;;10.80;76.40;;;;;;5035145;28;20037;-71
2023/10/31 01:30:25;;;;;;;0.93;0.45;;;10.80;76.10;;;;;;5035077;28;20041;-70
2023/10/31 01:32:50;;;;;;;0.20;0.20;;;10.80;76.90;;;;;;5035139;28;20037;-71
2023/10/31 01:35:16;;;;;;;1.42;0.50;;;10.70;76.50;;;;;;5035094;28;20037;-71
2023/10/31 01:37:41;;;;;;;0.82;0.40;;;10.70;76.80;;;;;;5034979;28;20026;-70
2023/10/31 01:40:07;;;;;;;2.45;0.30;;;10.80;76.70;;;;;;5033642;28;20040;-71
2023/10/31 01:42:33;;;;;;;0.90;0.50;;;10.80;76.20;;;;;;5034947;28;20471;-70
2023/10/31 01:44:58;;;;;;;0.52;0.22;;;10.70;76.00;;;;;;5035021;28;20029;-70
2023/10/31 01:47:24;;;;;;;2.08;0.40;;;10.70;76.40;;;;;;5034986;28;20029;-70
2023/10/31 01:49:51;;;;;;;0.32;0.30;;;10.70;76.30;;;;;;5035007;28;20052;-70
2023/10/31 01:52:16;;;;;;;1.63;0.40;;;10.70;76.40;;;;;;5034772;28;20033;-71
2023/10/31 01:54:43;;;;;;;0.75;0.30;;;10.70;76.30;;;;;;5034686;28;20433;-70
2023/10/31 01:57:09;;;;;;;4.25;0.57;;;10.60;76.20;;;;;;5072979;28;20025;-70
2023/10/31 01:59:35;;;;;;;1.25;0.50;;;10.60;76.20;;;;;;5074245;28;20496;-70
2023/10/31 02:02:01;;;;;;;2.03;0.55;;;10.60;76.80;;;;;;5074401;28;20039;-69
2023/10/31 02:04:26;;;;;;;1.17;0.40;;;10.60;75.30;;;;;;5074205;28;20372;-70
2023/10/31 02:06:52;;;;;;;1.35;0.35;;;10.60;74.80;;;;;;5074392;28;20032;-69
2023/10/31 02:09:17;;;;;;;1.38;0.70;;;10.60;75.40;;;;;;5074363;28;20093;-69
2023/10/31 02:11:43;;;;;;;0.90;0.40;;;10.60;74.40;;;;;;5074279;28;20080;-69
2023/10/31 02:14:08;;;;;;;0.95;0.20;;;10.60;75.20;;;;;;5074194;28;20024;-70
2023/10/31 02:16:34;;;;;;;0.82;0.50;;;10.60;74.70;;;;;;5074251;28;20028;-69
2023/10/31 02:19:00;;;;;;;2.28;0.50;;;10.50;75.30;;;;;;5074263;28;20417;-69
2023/10/31 02:21:25;;;;;;;1.80;0.40;;;10.50;76.00;;;;;;5074182;28;20032;-70
2023/10/31 02:23:58;;;;;;;0.90;0.40;;;10.40;76.40;;;;;;5074147;28;20020;-69
2023/10/31 02:26:29;;;;;;;1.42;0.20;;;10.40;77.60;;;;;;5072654;28;20511;-70
2023/10/31 02:28:55;;;;;;;1.75;0.30;;;10.30;77.70;;;;;;5073924;28;20017;-69
2023/10/31 02:31:21;;;;;;;0.73;0.25;;;10.30;78.10;;;;;;5074137;28;20037;-69
2023/10/31 02:33:46;;;;;;;2.58;0.47;;;10.20;78.80;;;;;;5073785;28;20048;-70
2023/10/31 02:36:12;;;;;;;0.45;0.28;;;10.20;79.60;;;;;;5073929;28;20042;-69
2023/10/31 02:38:37;;;;;;;0.77;0.32;;;10.20;79.90;;;;;;5073866;28;20031;-70
2023/10/31 02:41:03;;;;;;;1.92;0.50;;;10.20;79.20;;;;;;5073770;28;20029;-69
2023/10/31 02:43:28;;;;;;;0.25;0.08;;;10.10;79.10;;;;;;5073661;28;20055;-69
2023/10/31 02:45:54;;;;;;;1.10;0.20;;;10.10;79.50;;;;;;5072363;28;20043;-70
2023/10/31 02:48:20;;;;;;;1.05;0.25;;;10.10;79.20;;;;;;5073533;28;20020;-71
2023/10/31 02:50:45;;;;;;;1.48;0.40;;;10.20;78.40;;;;;;5072248;28;20094;-70
2023/10/31 02:53:11;;;;;;;0.45;0.20;;;10.20;78.40;;;;;;5073511;28;20036;-70
2023/10/31 02:55:37;;;;;;;0.85;0.20;;;10.30;77.40;;;;;;5073509;28;20107;-71
2023/10/31 02:58:02;;;;;;;0.70;0.20;;;10.30;77.70;;;;;;5073525;28;20099;-71
2023/10/31 03:00:28;;;;;;;0.43;0.30;;;10.30;77.10;;;;;;5073340;28;20032;-70
2023/10/31 03:02:54;;;;;;;0.35;0.20;;;10.30;76.80;;;;;;5073261;28;20028;-70
2023/10/31 03:05:19;;;;;;;0.40;0.20;;;10.30;76.90;;;;;;5073603;28;20039;-70
2023/10/31 03:07:45;;;;;;;0.77;0.40;;;10.30;76.70;;;;;;5073243;28;20099;-70
2023/10/31 03:10:11;;;;;;;0.60;0.20;;;10.30;76.20;;;;;;5072949;28;20029;-71
2023/10/31 03:12:36;;;;;;;1.05;0.30;;;10.40;76.20;;;;;;5073297;28;20028;-70
2023/10/31 03:15:03;;;;;;;1.42;0.20;;;10.40;76.00;;;;;;5072707;28;20033;-80
2023/10/31 03:17:29;;;;;;;1.42;0.30;;;10.50;75.90;;;;;;5073459;28;20024;-81
2023/10/31 03:19:55;;;;;;;2.72;0.28;;;10.40;75.50;;;;;;5073357;28;20044;-82
2023/10/31 03:22:20;;;;;;;1.45;0.30;;;10.40;76.10;;;;;;5073039;28;20079;-80
2023/10/31 03:24:46;;;;;;;0.77;0.13;;;10.30;75.90;;;;;;5073224;28;20038;-81
2023/10/31 03:27:11;;;;;;;0.65;0.30;;;10.30;76.30;;;;;;5071942;28;20035;-79
2023/10/31 03:29:37;;;;;;;0.45;0.10;;;10.30;77.00;;;;;;5073096;28;20111;-79
2023/10/31 03:32:04;;;;;;;0.50;0.20;;;10.20;77.30;;;;;;5073125;28;20024;-75
2023/10/31 03:34:30;;;;;;;2.05;0.40;;;10.20;78.50;;;;;;5073194;28;20013;-78
2023/10/31 03:36:56;;;;;;;0.40;0.17;;;10.20;78.90;;;;;;5073157;28;20442;-79
2023/10/31 03:39:21;;;;;;;1.58;0.20;;;10.10;79.90;;;;;;5073460;28;20021;-78
2023/10/31 03:41:47;;;;;;;0.82;0.30;;;10.00;79.80;;;;;;5073366;28;20039;-79
2023/10/31 03:44:12;;;;;;;0.98;0.20;;;10.10;80.80;;;;;;5073294;28;20024;-78
2023/10/31 03:46:38;;;;;;;1.92;0.30;;;10.00;80.20;;;;;;5073054;28;20028;-73
2023/10/31 03:49:03;;;;;;;1.48;0.20;;;10.00;80.90;;;;;;5073026;28;20385;-75
2023/10/31 03:51:29;;;;;;;0.40;0.20;;;9.90;81.40;;;;;;5073012;28;20392;-77
2023/10/31 03:53:55;;;;;;;2.55;0.30;;;9.90;82.40;;;;;;5073043;28;20101;-77
2023/10/31 03:56:21;;;;;;;0.90;0.20;;;9.90;81.80;;;;;;5072906;28;20029;-80
2023/10/31 03:58:46;;;;;;;0.38;0.10;;;9.90;82.10;;;;;;5072622;28;20017;-79
2023/10/31 04:01:12;;;;;;;3.58;0.25;;;9.90;82.10;;;;;;5073169;28;20542;-77
2023/10/31 04:03:37;;;;;;;1.00;0.20;;;9.90;82.30;;;;;;5072866;28;20029;-80
2023/10/31 04:06:03;;;;;;;0.30;0.20;;;9.90;82.00;;;;;;5071449;28;20108;-79
2023/10/31 04:08:29;;;;;;;0.47;0.30;;;9.90;82.30;;;;;;5072817;28;20036;-76
2023/10/31 04:10:54;;;;;;;0.47;0.40;;;9.90;82.60;;;;;;5072579;28;20051;-77
2023/10/31 04:13:20;;;;;;;0.95;0.20;;;9.90;82.60;;;;;;5072916;28;20013;-81
2023/10/31 04:15:45;;;;;;;1.52;0.30;;;9.90;82.10;;;;;;5071414;28;20465;-73
2023/10/31 04:18:11;;;;;;;0.65;0.25;;;9.90;81.90;;;;;;5071284;28;20020;-71
2023/10/31 04:20:36;;;;;;;0.70;0.32;;;9.80;82.00;;;;;;5072545;28;20036;-72
2023/10/31 04:23:02;;;;;;;0.63;0.20;;;9.80;82.30;;;;;;5072641;28;20050;-72
2023/10/31 04:25:29;;;;;;;1.48;0.40;;;9.70;83.00;;;;;;5072651;28;20028;-72
2023/10/31 04:27:54;;;;;;;0.80;0.30;;;9.70;81.60;;;;;;5076955;28;20016;-72
2023/10/31 04:30:21;;;;;;;0.52;0.10;;;9.80;81.60;;;;;;5077944;28;20036;-71
2023/10/31 04:32:47;;;;;;;0.93;0.20;;;9.70;80.40;;;;;;5076172;28;20032;-71
2023/10/31 04:35:12;;;;;;;1.58;0.20;;;9.70;80.40;;;;;;5076089;28;20469;-71
2023/10/31 04:37:38;;;;;;;0.30;0.20;;;9.70;80.50;;;;;;5076084;28;20028;-70
2023/10/31 04:40:04;;;;;;;0.70;0.35;;;9.70;79.30;;;;;;5076032;28;20033;-71
2023/10/31 04:42:33;;;;;;;0.43;0.20;;;9.70;79.40;;;;;;5076107;28;20082;-70
2023/10/31 04:44:59;;;;;;;1.75;0.30;;;9.70;79.50;;;;;;5075892;28;20078;-70
2023/10/31 04:47:24;;;;;;;1.15;0.20;;;9.60;79.70;;;;;;5075955;28;20028;-70
2023/10/31 04:49:50;;;;;;;0.75;0.32;;;9.60;79.10;;;;;;5075634;28;20319;-70
2023/10/31 04:52:17;;;;;;;2.50;0.30;;;9.60;79.60;;;;;;5075810;28;20050;-70
2023/10/31 04:54:43;;;;;;;0.73;0.20;;;9.60;79.50;;;;;;5075707;28;20052;-70
2023/10/31 04:57:08;;;;;;;0.30;0.30;;;9.60;79.10;;;;;;5075709;28;20374;-70
2023/10/31 04:59:34;;;;;;;1.08;0.30;;;9.60;79.40;;;;;;5075452;28;20023;-70
2023/10/31 05:01:59;;;;;;;0.95;0.40;;;9.60;79.00;;;;;;5074329;28;20024;-70
2023/10/31 05:04:26;;;;;;;1.15;0.40;;;9.60;79.90;;;;;;5075676;28;20033;-70
2023/10/31 05:06:51;;;;;;;2.25;0.52;;;9.60;79.70;;;;;;5075393;28;20017;-70
2023/10/31 05:09:17;;;;;;;0.63;0.43;;;9.60;80.50;;;;;;5075385;28;20081;-71
2023/10/31 05:11:43;;;;;;;0.93;0.47;;;9.60;80.50;;;;;;5075202;28;20036;-70
2023/10/31 05:14:12;;;;;;;1.40;0.73;;;9.60;80.50;;;;;;5075416;28;20163;-70
2023/10/31 05:16:43;;;;;;;2.08;0.70;;;9.60;79.90;;;;;;5075358;28;20029;-70
2023/10/31 05:19:10;;;;;;;3.17;0.60;;;9.60;79.70;;;;;;5075611;28;20021;-70
2023/10/31 05:21:36;;;;;;;1.40;0.50;;;9.60;79.70;;;;;;5075234;28;20024;-72
2023/10/31 05:24:02;;;;;;;2.65;0.68;;;9.70;79.40;;;;;;5075215;28;20028;-72
2023/10/31 05:26:30;;;;;;;1.65;0.30;;;9.70;79.00;;;;;;5075023;28;20485;-72
2023/10/31 05:28:57;;;;;;;0.90;0.30;;;9.80;79.10;;;;;;5075162;28;20024;-70
2023/10/31 05:31:24;;;;;;;1.63;0.50;;;9.80;79.20;;;;;;5074832;28;20047;-71
2023/10/31 05:33:51;;;;;;;1.88;0.70;;;9.90;80.20;;;;;;5075141;28;20071;-71
2023/10/31 05:36:24;;;;;;;1.27;0.40;;;9.80;77.60;;;;;;5074942;28;20021;-71
2023/10/31 05:38:49;;;;;;;1.17;0.50;;;9.90;77.90;;;;;;5074208;28;20017;-70
2023/10/31 05:41:15;;;;;;;1.15;0.40;;;9.70;77.50;;;;;;5073505;28;20027;-70
2023/10/31 05:43:41;;;;;;;3.55;0.45;;;9.70;76.30;;;;;;5073592;28;20017;-71
2023/10/31 05:46:10;;;;;;;1.95;0.70;;;9.70;76.10;;;;;;5074803;28;20032;-71
2023/10/31 05:48:38;;;;;;;2.45;0.60;;;9.60;76.40;;;;;;5074875;28;20025;-69
2023/10/31 05:51:04;;;;;;;1.33;0.60;;;9.60;75.20;;;;;;5074718;28;20111;-69
2023/10/31 05:53:32;;;;;;;0.70;0.50;;;9.60;75.30;;;;;;5073366;28;20474;-69
2023/10/31 05:55:58;;;;;;;1.75;0.50;;;9.60;75.70;;;;;;5074752;28;20025;-70
2023/10/31 05:58:23;;;;;;;2.05;0.32;;;9.60;75.50;;;;;;5074707;28;20631;-70
2023/10/31 06:00:49;;;;;;;3.72;0.60;;;9.50;75.30;;;;;;5074418;28;20095;-70
2023/10/31 06:03:14;;;;;;;1.98;0.60;;;9.50;75.70;;;;;;5074387;28;20021;-71
2023/10/31 06:05:39;;;;;;;1.02;0.47;;;9.50;75.80;;;;;;5074396;28;20099;-70
2023/10/31 06:08:05;;;;;;;2.15;0.50;;;9.50;76.20;;;;;;5074210;28;20042;-70
2023/10/31 06:10:30;;;;;;;1.98;0.70;;;9.50;76.40;;;;;;5074140;28;20519;-70
2023/10/31 06:12:56;;;;;;;4.05;0.70;;;9.50;76.70;;;;;;5074345;28;20035;-71
2023/10/31 06:15:21;;;;;;;2.55;0.98;;;9.50;76.80;;;;;;5074359;28;20044;-70
2023/10/31 06:17:47;;;;;;;3.35;0.80;;;9.50;77.10;;;;;;5074373;28;20029;-70
2023/10/31 06:20:13;;;;;;;4.20;0.70;;;9.50;76.30;;;;;;5072914;28;20021;-71
2023/10/31 06:22:38;;;;;;;1.95;0.60;;;9.50;76.60;;;;;;5074181;28;20028;-70
2023/10/31 06:25:04;;;;;;;1.90;0.60;;;9.50;75.80;;;;;;5074303;28;20033;-70
2023/10/31 06:27:30;;;;;;;2.80;0.50;;;9.40;76.50;;;;;;5074000;28;20043;-70
2023/10/31 06:29:55;;;;;;;3.47;0.70;;;9.40;76.60;;;;;;5073978;28;20473;-71
2023/10/31 06:32:20;;;;;;;3.53;0.95;;;9.50;76.40;;;;;;5073919;28;20096;-71
2023/10/31 06:34:46;;;;;;;2.60;0.90;;;9.50;75.90;;;;;;5073970;28;20091;-71
2023/10/31 06:37:12;;;;;;;3.42;1.40;;;9.60;75.80;;;;;;5073739;28;20033;-71
2023/10/31 06:39:37;;;;;;;4.68;1.85;;;9.60;75.50;;;;;;5073694;28;20603;-71
2023/10/31 06:42:03;;;;;;;3.20;0.77;;;9.60;75.50;;;;;;5073665;28;20493;-69
2023/10/31 06:44:29;;;;;;;3.15;0.77;;;9.70;75.20;;;;;;5073588;28;20027;-70
2023/10/31 06:46:54;;;;;;;3.13;0.52;;;9.70;74.90;;;;;;5073483;28;20397;-70
2023/10/31 06:49:20;;;;;;;3.13;0.75;;;9.70;75.10;;;;;;5072799;28;20024;-69
2023/10/31 06:51:46;;;;;;;2.72;0.88;;;9.60;75.00;;;;;;5073168;28;20037;-69
2023/10/31 06:54:11;;;;;;;2.40;0.75;;;9.60;75.00;;;;;;5073487;28;20032;-69
2023/10/31 06:56:37;;;;;;;3.20;0.52;;;9.70;74.80;;;;;;5073384;28;20054;-69
2023/10/31 06:59:02;;;;;;;2.97;0.60;;;9.70;74.50;;;;;;5044997;28;20044;-71
2023/10/31 07:01:28;;;;;;;2.90;1.05;;;9.80;74.70;;;;;;5033555;28;20028;-74
2023/10/31 07:03:53;;;;;;;1.20;0.50;;;9.80;74.20;;;;;;5033252;28;20029;-77
2023/10/31 07:06:19;;;;;;;2.10;0.90;;;9.90;73.90;;;;;;5032123;28;20022;-72
2023/10/31 07:08:44;;;;;;;2.13;0.93;;;9.90;73.40;;;;;;5033231;28;20037;-80
2023/10/31 07:11:10;;;;;;;3.22;0.80;;;9.90;73.50;;;;;;5032962;28;20053;-81
2023/10/31 07:13:36;;;;;;;2.40;0.55;;;9.90;74.00;;;;;;5033626;28;20074;-71
2023/10/31 07:16:02;;;;;;;7.05;1.00;;;9.80;74.00;;;;;;5033037;28;20041;-71
2023/10/31 07:18:27;;;;;;;4.75;0.80;;;9.80;73.50;;;;;;5033189;28;20480;-71
2023/10/31 07:20:53;;;;;;;4.13;0.90;;;9.90;73.00;;;;;;5031804;28;20037;-72
2023/10/31 07:23:18;;;;;;;4.80;0.95;;;9.90;72.60;;;;;;5032768;28;20029;-72
2023/10/31 07:25:45;;;;;;;13.85;1.20;;;10.00;72.60;;;;;;5032906;28;20040;-72
2023/10/31 07:28:10;;;;;;;4.40;1.10;;;10.00;73.20;;;;;;5032979;28;20071;-71
2023/10/31 07:30:36;;;;;;;6.07;0.98;;;10.00;72.90;;;;;;5032988;28;20034;-71
2023/10/31 07:33:02;;;;;;;2.45;0.70;;;10.00;72.60;;;;;;5033037;28;20028;-71
2023/10/31 07:35:28;;;;;;;4.22;0.82;;;10.00;72.40;;;;;;5032778;28;20076;-70
2023/10/31 07:37:53;;;;;;;6.35;0.90;;;10.10;71.80;;;;;;5032834;28;20033;-70
2023/10/31 07:40:19;;;;;;;4.75;1.17;;;10.10;71.50;;;;;;5032799;28;20096;-70
2023/10/31 07:42:44;;;;;;;5.95;2.05;;;10.10;72.00;;;;;;5032761;28;20033;-71
2023/10/31 07:45:10;;;;;;;6.30;1.13;;;10.10;72.50;;;;;;5032600;28;20087;-72
2023/10/31 07:47:36;;;;;;;2.63;1.10;;;10.20;72.60;;;;;;5032570;28;20049;-72
2023/10/31 07:50:02;;;;;;;6.57;1.50;;;10.20;71.90;;;;;;5032841;28;20029;-72
2023/10/31 07:52:28;;;;;;;3.80;1.02;;;10.20;71.50;;;;;;5032605;28;20029;-70
2023/10/31 07:54:54;;;;;;;6.50;1.20;;;10.10;71.50;;;;;;5032669;28;20018;-72
2023/10/31 07:57:19;;;;;;;5.43;1.10;;;10.20;71.80;;;;;;5032334;28;20105;-70
2023/10/31 07:59:45;;;;;;;3.83;1.20;;;10.30;71.90;;;;;;5032507;28;20067;-72
2023/10/31 08:02:11;;;;;;;4.07;1.35;;;10.40;71.20;;;;;;5035088;28;20175;-71
2023/10/31 08:04:36;;;;;;;9.38;1.38;;;10.50;70.80;;;;;;5035073;28;20136;-72
2023/10/31 08:07:02;;;;;;;5.43;1.20;;;10.50;70.30;;;;;;5036335;28;20033;-70
2023/10/31 08:09:27;;;;;;;4.20;1.27;;;10.50;71.10;;;;;;5036847;28;20018;-73
2023/10/31 08:11:53;;;;;;;4.45;1.10;;;10.60;72.40;;;;;;5034663;28;20057;-73
2023/10/31 08:14:18;;;;;;;5.40;1.02;;;10.70;71.10;;;;;;5036307;28;20021;-73
2023/10/31 08:16:44;;;;;;;4.32;0.80;;;10.70;71.70;;;;;;5036375;28;20125;-73
2023/10/31 08:19:10;;;;;;;5.30;1.60;;;10.70;72.70;;;;;;5036540;28;20026;-73
2023/10/31 08:21:38;;;;;;;7.07;1.42;;;11.10;71.20;;;;;;5036690;28;20108;-73
2023/10/31 08:24:04;;;;;;;2.58;1.17;;;11.30;70.10;;;;;;5036266;28;20438;-74
2023/10/31 08:26:34;;;;;;;7.05;1.67;;;11.40;69.50;;;;;;5036225;28;20033;-73
2023/10/31 08:28:59;;;;;;;6.65;1.20;;;11.50;68.60;;;;;;5036250;28;20493;-74
2023/10/31 08:31:25;;;;;;;5.40;1.00;;;11.60;68.50;;;;;;5034879;28;20037;-73
2023/10/31 08:33:50;;;;;;;7.97;1.13;;;11.60;68.60;;;;;;5036100;28;20067;-73
2023/10/31 08:36:16;;;;;;;5.95;1.58;;;11.70;68.80;;;;;;5035973;28;20081;-73
2023/10/31 08:38:42;;;;;;;3.97;1.08;;;11.70;66.70;;;;;;5035935;28;20149;-73
2023/10/31 08:41:08;;;;;;;3.88;1.13;;;11.50;67.00;;;;;;5034343;28;20029;-73
2023/10/31 08:43:33;;;;;;;7.68;1.25;;;11.40;69.20;;;;;;5035556;28;20025;-73
2023/10/31 08:45:59;;;;;;;7.30;1.58;;;11.60;67.70;;;;;;5035920;28;20028;-74
2023/10/31 08:48:24;;;;;;;4.30;1.20;;;11.80;68.50;;;;;;5035769;28;20460;-74
2023/10/31 08:50:50;;;;;;;4.72;0.98;;;12.20;66.90;;;;;;5035633;28;20040;-73
2023/10/31 08:53:16;;;;;;;4.55;1.40;;;12.40;66.00;;;;;;5034312;28;20025;-72
2023/10/31 08:55:44;;;;;;;4.53;2.08;;;12.60;64.80;;;;;;5035565;28;20029;-71
2023/10/31 08:58:13;;;;;;;6.05;1.85;;;12.70;64.80;;;;;;5035369;28;20433;-76
2023/10/31 09:00:42;;;;;;;8.32;1.77;;;12.80;63.80;;;;;;5033974;28;20021;-72
2023/10/31 09:03:07;;;;;;;10.25;1.63;;;12.80;63.80;;;;;;5035376;28;20032;-71
2023/10/31 09:05:33;;;;;;;5.78;1.45;;;12.50;64.80;;;;;;5035435;28;20018;-71
2023/10/31 09:07:59;;;;;;;3.83;1.23;;;12.30;65.00;;;;;;5035292;28;20028;-76
2023/10/31 09:10:24;;;;;;;5.70;1.35;;;11.90;66.50;;;;;;5033716;28;20057;-75
2023/10/31 09:12:50;;;;;;;3.35;0.90;;;11.70;67.90;;;;;;5034348;28;20083;-75
2023/10/31 09:15:15;;;;;;;3.03;0.93;;;11.50;69.00;;;;;;5033959;28;20021;-73
2023/10/31 09:17:41;;;;;;;6.43;1.33;;;11.60;68.80;;;;;;5035270;28;20040;-74
2023/10/31 09:20:08;;;;;;;7.90;1.30;;;11.60;68.40;;;;;;5035096;28;20489;-72
2023/10/31 09:22:33;;;;;;;3.88;0.90;;;11.80;68.60;;;;;;5035221;28;20056;-76
2023/10/31 09:24:59;;;;;;;2.78;0.75;;;11.80;68.90;;;;;;5035224;28;20026;-73
2023/10/31 09:27:24;;;;;;;3.40;1.08;;;11.90;69.50;;;;;;5034451;28;20062;-73
2023/10/31 09:29:51;;;;;;;3.13;0.70;;;11.90;69.70;;;;;;5034887;28;20018;-77
2023/10/31 09:32:18;;;;;;;7.07;1.00;;;11.90;68.60;;;;;;5035046;28;20036;-78
2023/10/31 09:34:44;;;;;;;3.40;0.82;;;12.00;69.30;;;;;;5033880;28;20017;-76
2023/10/31 09:37:09;;;;;;;1.77;0.70;;;12.10;69.10;;;;;;5035850;28;20055;-78
2023/10/31 09:39:35;;;;;;;2.33;0.95;;;12.20;68.20;;;;;;5034436;28;20053;-76
2023/10/31 09:42:00;;;;;;;2.83;0.90;;;12.40;67.80;;;;;;5033750;28;20033;-71
2023/10/31 09:44:26;;;;;;;5.15;1.10;;;12.50;68.30;;;;;;5037908;28;20030;-75
2023/10/31 09:46:52;;;;;;;4.32;1.05;;;12.80;66.40;;;;;;5033860;28;20237;-70
2023/10/31 09:49:18;;;;;;;2.92;0.85;;;12.90;65.60;;;;;;5035088;28;20022;-76
2023/10/31 09:51:46;;;;;;;2.33;0.73;;;12.70;65.80;;;;;;5034894;28;20044;-73
2023/10/31 09:54:15;;;;;;;1.92;0.50;;;12.70;67.20;;;;;;5034538;28;20531;-77
2023/10/31 09:56:41;;;;;;;3.13;0.50;;;13.10;66.40;;;;;;5034718;28;20084;-71
2023/10/31 09:59:07;;;;;;;3.38;0.75;;;13.50;64.50;;;;;;5034500;28;20017;-70
2023/10/31 10:01:33;;;;;;;2.78;0.80;;;13.70;63.80;;;;;;5034517;28;20162;-77
2023/10/31 10:03:59;;;;;;;2.38;0.47;;;13.40;64.40;;;;;;5034520;28;20060;-74
2023/10/31 10:06:24;;;;;;;7.43;0.93;;;13.60;63.40;;;;;;5034512;28;20025;-79
2023/10/31 10:08:50;;;;;;;3.25;0.68;;;13.50;64.90;;;;;;5033249;28;20022;-72
2023/10/31 10:11:16;;;;;;;2.53;0.60;;;13.40;64.60;;;;;;5033035;28;20056;-76
2023/10/31 10:13:42;;;;;;;2.15;0.60;;;13.30;65.20;;;;;;5032907;28;20499;-74
2023/10/31 10:16:09;;;;;;;1.65;0.40;;;13.40;65.40;;;;;;5034223;28;20075;-72
2023/10/31 10:18:37;;;;;;;1.65;0.63;;;13.50;64.20;;;;;;5033223;28;20053;-80
2023/10/31 10:21:04;;;;;;;0.70;0.38;;;13.50;64.60;;;;;;5034140;28;20025;-76
2023/10/31 10:23:30;;;;;;;4.18;0.63;;;13.40;64.60;;;;;;5033948;28;20022;-73
2023/10/31 10:25:57;;;;;;;0.82;0.30;;;13.00;66.00;;;;;;5034351;28;20029;-76
2023/10/31 10:28:26;;;;;;;1.08;0.30;;;12.70;67.30;;;;;;5033936;28;20073;-74
2023/10/31 10:30:53;;;;;;;1.45;0.43;;;12.50;68.60;;;;;;5032433;28;20091;-74
2023/10/31 10:33:20;;;;;;;1.63;0.60;;;12.40;69.20;;;;;;5033660;28;20387;-74
2023/10/31 10:35:45;;;;;;;2.00;0.80;;;12.30;68.90;;;;;;5033545;28;20421;-75
2023/10/31 10:38:13;;;;;;;0.85;0.38;;;12.40;69.70;;;;;;5033702;28;20049;-76
2023/10/31 10:40:41;;;;;;;0.80;0.30;;;12.50;69.00;;;;;;5033968;28;20432;-75
2023/10/31 10:43:13;;;;;;;0.75;0.50;;;12.70;68.00;;;;;;5034483;28;20101;-71
2023/10/31 10:45:43;;;;;;;1.08;0.40;;;12.70;67.10;;;;;;5034039;28;20093;-77
2023/10/31 10:48:13;;;;;;;0.70;0.40;;;12.70;67.60;;;;;;5032434;28;20065;-75
2023/10/31 10:50:42;;;;;;;0.77;0.30;;;12.90;67.20;;;;;;5052507;28;20342;-73
2023/10/31 10:53:21;;;;;;;0.68;0.28;;;13.20;66.40;;;;;;5073521;28;20481;-75
2023/10/31 10:55:51;;;;;;;2.03;0.50;;;13.40;66.00;;;;;;5073384;28;20093;-74
2023/10/31 10:58:55;;;;;;;1.42;0.50;;;13.20;65.20;;;;;;5073165;28;20021;-70
2023/10/31 11:01:20;;;;;;;0.88;0.40;;;12.90;66.50;;;;;;5071828;28;20028;-75
2023/10/31 11:03:46;;;;;;;0.90;0.43;;;12.80;66.50;;;;;;5071792;28;20575;-74
2023/10/31 11:06:13;;;;;;;2.10;0.52;;;12.90;66.60;;;;;;5071728;28;20040;-74
2023/10/31 11:08:40;;;;;;;1.13;0.50;;;13.00;66.40;;;;;;5073208;28;20104;-71
2023/10/31 11:11:06;;;;;;;1.88;0.52;;;13.10;66.60;;;;;;5072455;28;20072;-72
2023/10/31 11:13:32;;;;;;;1.23;0.50;;;13.00;66.30;;;;;;5072931;28;20530;-72
2023/10/31 11:16:01;;;;;;;2.17;0.60;;;13.10;66.80;;;;;;5072669;28;20056;-73
2023/10/31 11:18:27;;;;;;;0.98;0.40;;;13.10;66.40;;;;;;5072811;28;20066;-71
2023/10/31 11:20:53;;;;;;;2.55;0.82;;;13.40;65.60;;;;;;5072921;28;20386;-71
2023/10/31 11:23:19;;;;;;;2.28;0.70;;;13.40;65.20;;;;;;5072987;28;20021;-71
2023/10/31 11:25:44;;;;;;;2.35;0.70;;;13.50;65.50;;;;;;5072900;28;20473;-71
2023/10/31 11:28:15;;;;;;;3.45;2.53;;;13.50;64.40;;;;;;5071597;28;20105;-70
2023/10/31 11:30:46;;;;;;;2.17;0.82;;;13.40;64.80;;;;;;5073192;28;20040;-70
2023/10/31 11:33:13;;;;;;;2.28;0.60;;;13.40;65.30;;;;;;5073774;28;20046;-71
2023/10/31 11:35:40;;;;;;;1.48;0.70;;;13.70;65.60;;;;;;5070991;28;20058;-70
2023/10/31 11:38:07;;;;;;;1.73;0.50;;;13.70;64.00;;;;;;5072805;28;20028;-71
2023/10/31 11:40:33;;;;;;;2.00;0.70;;;13.50;64.40;;;;;;5072731;28;20078;-70
2023/10/31 11:43:04;;;;;;;2.22;1.10;;;13.20;66.20;;;;;;5072759;28;20373;-71
2023/10/31 11:45:36;;;;;;;2.75;1.02;;;13.00;66.90;;;;;;5072768;28;20028;-71
2023/10/31 11:48:04;;;;;;;2.35;0.43;;;12.90;67.50;;;;;;5072523;28;20024;-71
2023/10/31 11:50:30;;;;;;;2.25;0.60;;;12.70;68.40;;;;;;5072657;28;20047;-70
2023/10/31 11:52:59;;;;;;;4.72;0.70;;;12.60;69.20;;;;;;5072737;28;20489;-71
2023/10/31 11:55:25;;;;;;;2.88;0.60;;;12.40;70.70;;;;;;5072621;28;20016;-71
2023/10/31 11:57:50;;;;;;;1.40;0.70;;;12.30;71.10;;;;;;5072659;28;20385;-70
2023/10/31 12:00:23;;;;;;;3.30;0.90;;;12.10;73.70;;;;;;5072396;28;20033;-71
2023/10/31 12:03:00;;;;;;;2.90;1.20;;;12.00;73.70;;;;;;5072319;28;20017;-70
2023/10/31 12:05:25;;;;;;;2.65;1.35;;;12.10;73.40;;;;;;5071281;28;20495;-69
2023/10/31 12:07:51;;;;;;;2.45;1.20;;;12.20;73.80;;;;;;5070977;28;20115;-73
2023/10/31 12:10:29;;;;;;;3.20;0.70;;;12.20;73.20;;;;;;5072294;28;20473;-78
2023/10/31 12:12:56;;;;;;;2.30;0.68;;;12.10;71.70;;;;;;5072387;28;20039;-78
2023/10/31 12:15:22;;;;;;;2.28;0.60;;;12.10;72.50;;;;;;5072865;28;20031;-76
2023/10/31 12:17:48;;;;;;;2.72;1.05;;;12.10;73.00;;;;;;5072435;28;20028;-76
2023/10/31 12:20:15;;;;;;;4.63;0.90;;;12.40;71.70;;;;;;5054512;28;20039;-75
2023/10/31 12:22:41;;;;;;;1.40;0.82;;;12.50;71.90;;;;;;5072458;28;20046;-74
2023/10/31 12:25:08;;;;;;;1.77;0.63;;;12.70;71.00;;;;;;5072197;28;20016;-76
2023/10/31 12:27:44;;;;;;;3.45;0.85;;;12.90;71.70;;;;;;5072097;28;20024;-72
2023/10/31 12:30:11;;;;;;;1.95;0.57;;;13.10;67.60;;;;;;5071711;28;20194;-78
2023/10/31 12:32:36;;;;;;;0.65;0.35;;;13.20;67.80;;;;;;5071587;28;20029;-76
2023/10/31 12:35:03;;;;;;;2.90;0.50;;;13.20;65.70;;;;;;5072038;28;20028;-77
2023/10/31 12:37:29;;;;;;;2.33;0.80;;;13.20;66.30;;;;;;5072208;28;20035;-70
2023/10/31 12:39:56;;;;;;;5.45;1.38;;;13.50;66.20;;;;;;5071983;28;20017;-70
2023/10/31 12:42:23;;;;;;;5.25;1.00;;;13.60;65.50;;;;;;5070713;28;20029;-71
2023/10/31 12:44:48;;;;;;;3.80;0.80;;;13.70;66.60;;;;;;5070855;28;20423;-71